createdAt,value
2019-03-30T00:01:16.991Z,625.67
2019-03-30T00:03:22.544Z,637.92
2019-03-30T00:05:28.292Z,617.85
2019-03-30T00:07:33.934Z,593.50
2019-03-30T00:09:39.549Z,573.62
2019-03-30T00:11:45.100Z,573.42
2019-03-30T00:13:50.656Z,528.80
2019-03-30T00:15:56.193Z,530.98
2019-03-30T00:18:01.887Z,506.95
2019-03-30T00:20:07.644Z,512.02
2019-03-30T00:22:13.285Z,512.33
2019-03-30T00:24:18.740Z,510.93
2019-03-30T00:26:24.299Z,504.42
2019-03-30T00:28:29.892Z,499.55
2019-03-30T00:30:36.293Z,550.25
2019-03-30T00:32:41.883Z,624.85
2019-03-30T00:34:47.412Z,749.05
2019-03-30T00:36:52.956Z,808.17
2019-03-30T00:38:58.508Z,729.27
2019-03-30T00:41:04.178Z,770.60
2019-03-30T00:43:09.717Z,778.65
2019-03-30T00:45:15.416Z,761.65
2019-03-30T00:47:21.044Z,708.62
2019-03-30T00:49:26.574Z,679.45
2019-03-30T00:51:32.120Z,596.35
2019-03-30T00:53:37.671Z,514.83
2019-03-30T00:55:43.194Z,470.15
2019-03-30T00:57:48.724Z,479.95
2019-03-30T00:59:54.244Z,464.90
2019-03-30T01:01:59.772Z,437.85
2019-03-30T01:04:05.453Z,443.13
2019-03-30T01:06:11.120Z,420.73
2019-03-30T01:08:16.642Z,398.00
2019-03-30T01:10:22.265Z,387.72
2019-03-30T01:12:27.802Z,402.13
2019-03-30T01:14:33.471Z,381.10
2019-03-30T01:16:39.083Z,398.07
2019-03-30T01:18:44.611Z,373.80
2019-03-30T01:20:50.144Z,374.40
2019-03-30T01:22:55.744Z,357.62
2019-03-30T01:25:01.270Z,358.07
2019-03-30T01:27:07.044Z,342.00
2019-03-30T01:29:13.707Z,326.95
2019-03-30T01:31:19.246Z,327.90
2019-03-30T01:33:24.849Z,325.80
2019-03-30T01:35:30.381Z,336.25
2019-03-30T01:37:35.980Z,343.67
2019-03-30T01:39:41.596Z,345.75
2019-03-30T01:41:47.830Z,351.55
2019-03-30T01:43:54.452Z,353.52
2019-03-30T01:46:00.317Z,344.02
2019-03-30T01:48:05.924Z,364.95
2019-03-30T01:50:17.550Z,350.48
2019-03-30T01:52:19.148Z,344.85
2019-03-30T01:54:24.708Z,346.77
2019-03-30T01:56:30.240Z,348.90
2019-03-30T01:58:36.047Z,356.40
2019-03-30T02:00:41.743Z,355.92
2019-03-30T02:02:47.275Z,352.73
2019-03-30T02:04:52.803Z,365.35
2019-03-30T02:06:58.341Z,398.57
2019-03-30T02:09:04.762Z,393.02
2019-03-30T02:11:10.372Z,410.55
2019-03-30T02:13:15.989Z,418.10
2019-03-30T02:15:21.521Z,398.02
2019-03-30T02:17:27.053Z,393.88
2019-03-30T02:19:32.655Z,394.75
2019-03-30T02:21:38.262Z,435.97
2019-03-30T02:23:43.796Z,456.47
2019-03-30T02:25:49.328Z,450.80
2019-03-30T02:27:54.874Z,462.85
2019-03-30T02:30:00.542Z,412.48
2019-03-30T02:32:06.037Z,405.22
2019-03-30T02:34:11.639Z,392.05
2019-03-30T02:36:17.235Z,393.52
2019-03-30T02:38:22.746Z,372.75
2019-03-30T02:40:28.309Z,379.25
2019-03-30T02:42:33.891Z,376.15
2019-03-30T02:44:39.428Z,366.65
2019-03-30T02:46:44.986Z,389.25
2019-03-30T02:48:50.507Z,410.25
2019-03-30T02:50:56.029Z,455.50
2019-03-30T02:53:01.586Z,442.22
2019-03-30T02:55:12.008Z,449.98
2019-03-30T02:57:14.600Z,471.30
2019-03-30T02:59:20.139Z,463.60
2019-03-30T03:01:25.729Z,473.35
2019-03-30T03:03:31.273Z,407.77
2019-03-30T03:05:36.903Z,401.35
2019-03-30T03:07:42.497Z,410.95
2019-03-30T03:09:48.033Z,396.43
2019-03-30T03:11:53.576Z,405.65
2019-03-30T03:13:59.088Z,375.38
2019-03-30T03:16:04.613Z,361.75
2019-03-30T03:18:10.155Z,342.25
2019-03-30T03:20:16.300Z,336.30
2019-03-30T03:22:21.832Z,316.42
2019-03-30T03:24:27.361Z,301.58
2019-03-30T03:26:32.903Z,303.35
2019-03-30T03:28:38.427Z,287.33
2019-03-30T03:30:43.991Z,285.85
2019-03-30T03:32:49.522Z,274.55
2019-03-30T03:34:55.085Z,264.93
2019-03-30T03:37:00.601Z,259.43
2019-03-30T03:39:06.273Z,256.02
2019-03-30T03:41:11.802Z,256.60
2019-03-30T03:43:17.319Z,260.85
2019-03-30T03:45:22.773Z,258.13
2019-03-30T03:47:28.302Z,254.15
2019-03-30T03:49:33.841Z,267.20
2019-03-30T03:51:40.772Z,266.35
2019-03-30T03:53:46.673Z,257.87
2019-03-30T03:55:53.345Z,264.17
2019-03-30T03:58:00.104Z,282.70
2019-03-30T04:00:07.977Z,273.32
2019-03-30T04:02:16.857Z,250.25
2019-03-30T04:04:24.816Z,245.07
2019-03-30T04:06:32.564Z,247.33
2019-03-30T04:08:40.621Z,236.20
2019-03-30T04:10:47.896Z,238.72
2019-03-30T04:12:55.280Z,247.20
2019-03-30T04:15:02.827Z,266.30
2019-03-30T04:17:08.425Z,274.45
2019-03-30T04:19:14.040Z,295.50
2019-03-30T04:21:19.569Z,298.38
2019-03-30T04:23:25.109Z,298.00
2019-03-30T04:25:30.644Z,329.25
2019-03-30T04:27:36.181Z,291.70
2019-03-30T04:29:41.707Z,298.48
2019-03-30T04:31:47.253Z,300.10
2019-03-30T04:33:52.772Z,307.77
2019-03-30T04:35:58.318Z,312.27
2019-03-30T04:38:03.866Z,317.70
2019-03-30T04:40:09.530Z,310.73
2019-03-30T04:42:15.060Z,330.62
2019-03-30T04:44:20.600Z,375.80
2019-03-30T04:46:26.141Z,353.48
2019-03-30T04:48:31.677Z,349.48
2019-03-30T04:50:37.252Z,321.98
2019-03-30T04:52:42.763Z,295.37
2019-03-30T04:54:48.300Z,277.90
2019-03-30T04:56:53.850Z,300.93
2019-03-30T04:58:59.377Z,271.52
2019-03-30T05:01:05.013Z,278.90
2019-03-30T05:03:10.539Z,279.10
2019-03-30T05:05:16.220Z,279.52
2019-03-30T05:07:21.746Z,279.15
2019-03-30T05:09:28.346Z,286.95
2019-03-30T05:11:33.872Z,291.90
2019-03-30T05:13:39.433Z,282.77
2019-03-30T05:15:45.027Z,269.90
2019-03-30T05:17:50.560Z,272.00
2019-03-30T05:19:56.100Z,267.80
2019-03-30T05:22:12.646Z,246.53
2019-03-30T05:24:08.792Z,257.25
2019-03-30T05:26:14.344Z,254.38
2019-03-30T05:28:19.867Z,249.77
2019-03-30T05:30:25.395Z,248.80
2019-03-30T05:32:30.936Z,258.47
2019-03-30T05:34:36.459Z,246.28
2019-03-30T05:36:41.979Z,240.18
2019-03-30T05:38:47.536Z,230.83
2019-03-30T05:40:53.069Z,201.77
2019-03-30T05:42:58.764Z,207.18
2019-03-30T05:45:07.698Z,231.85
2019-03-30T05:47:13.237Z,231.30
2019-03-30T05:49:18.765Z,246.97
2019-03-30T05:51:24.350Z,248.28
2019-03-30T05:53:32.523Z,248.47
2019-03-30T05:55:38.071Z,244.53
2019-03-30T05:57:43.877Z,264.25
2019-03-30T05:59:49.368Z,293.30
2019-03-30T06:01:54.906Z,352.75
2019-03-30T06:04:00.432Z,318.82
2019-03-30T06:06:05.968Z,293.82
2019-03-30T06:08:11.500Z,276.05
2019-03-30T06:10:17.049Z,230.62
2019-03-30T06:12:22.585Z,240.57
2019-03-30T06:14:28.127Z,237.00
2019-03-30T06:16:33.720Z,197.65
2019-03-30T06:18:39.344Z,188.37
2019-03-30T06:20:44.881Z,172.53
2019-03-30T06:22:50.418Z,165.55
2019-03-30T06:24:55.980Z,142.30
2019-03-30T06:27:01.511Z,144.77
2019-03-30T06:29:07.032Z,128.97
2019-03-30T06:31:12.580Z,134.63
2019-03-30T06:33:18.097Z,142.43
2019-03-30T06:35:23.762Z,136.47
2019-03-30T06:37:29.375Z,127.20
2019-03-30T06:39:37.048Z,125.02
2019-03-30T06:41:42.057Z,122.67
2019-03-30T06:43:47.612Z,128.15
2019-03-30T06:45:53.150Z,122.47
2019-03-30T06:47:58.678Z,137.00
2019-03-30T06:50:07.159Z,132.60
2019-03-30T06:52:12.693Z,135.82
2019-03-30T06:54:18.293Z,125.18
2019-03-30T06:56:23.834Z,127.82
2019-03-30T06:58:30.729Z,128.75
2019-03-30T07:00:36.433Z,123.60
2019-03-30T07:02:43.423Z,122.60
2019-03-30T07:04:49.125Z,126.65
2019-03-30T07:06:54.822Z,127.75
2019-03-30T07:09:04.337Z,133.75
2019-03-30T07:11:21.136Z,128.12
2019-03-30T07:13:17.811Z,133.25
2019-03-30T07:15:25.192Z,116.77
2019-03-30T07:17:31.274Z,123.70
2019-03-30T07:19:39.637Z,129.18
2019-03-30T07:21:45.197Z,119.45
2019-03-30T07:23:50.716Z,123.45
2019-03-30T07:25:56.264Z,128.18
2019-03-30T07:28:01.865Z,115.88
2019-03-30T07:30:08.512Z,126.92
2019-03-30T07:32:14.044Z,128.78
2019-03-30T07:34:19.612Z,125.92
2019-03-30T07:36:25.156Z,121.57
2019-03-30T07:38:30.700Z,116.35
2019-03-30T07:40:36.275Z,124.35
2019-03-30T07:42:41.800Z,128.82
2019-03-30T07:44:47.335Z,123.28
2019-03-30T07:46:52.900Z,129.10
2019-03-30T07:48:58.447Z,124.90
2019-03-30T07:51:03.990Z,131.18
2019-03-30T07:53:09.544Z,124.07
2019-03-30T07:55:15.175Z,122.65
2019-03-30T07:57:20.700Z,118.82
2019-03-30T07:59:26.259Z,119.67
2019-03-30T08:01:31.782Z,116.65
2019-03-30T08:03:37.328Z,116.22
2019-03-30T08:05:42.948Z,111.00
2019-03-30T08:07:48.490Z,100.92
2019-03-30T08:09:54.040Z,105.00
2019-03-30T08:11:59.837Z,101.50
2019-03-30T08:14:05.508Z,83.45
2019-03-30T08:16:12.087Z,82.55
2019-03-30T08:18:17.616Z,79.70
2019-03-30T08:20:23.150Z,68.97
2019-03-30T08:22:28.692Z,70.15
2019-03-30T08:24:34.212Z,67.25
2019-03-30T08:26:39.752Z,69.25
2019-03-30T08:28:45.287Z,67.78
2019-03-30T08:30:50.817Z,70.30
2019-03-30T08:32:56.408Z,71.92
2019-03-30T08:35:02.016Z,68.40
2019-03-30T08:37:07.559Z,67.72
2019-03-30T08:39:13.074Z,74.05
2019-03-30T08:41:18.632Z,81.53
2019-03-30T08:43:24.155Z,94.97
2019-03-30T08:45:29.709Z,88.60
2019-03-30T08:47:36.308Z,77.45
2019-03-30T08:49:41.924Z,86.08
2019-03-30T08:51:47.451Z,78.55
2019-03-30T08:53:54.683Z,77.65
2019-03-30T08:56:01.212Z,95.22
2019-03-30T08:58:06.775Z,82.75
2019-03-30T09:00:13.208Z,92.72
2019-03-30T09:02:18.808Z,94.70
2019-03-30T09:04:24.368Z,96.25
2019-03-30T09:06:29.876Z,94.80
2019-03-30T09:08:35.400Z,97.72
2019-03-30T09:10:41.101Z,71.87
2019-03-30T09:12:46.697Z,39.18
2019-03-30T09:14:52.303Z,39.83
2019-03-30T09:16:57.837Z,48.23
2019-03-30T09:19:03.429Z,51.85
2019-03-30T09:21:08.953Z,55.70
2019-03-30T09:23:14.472Z,64.25
2019-03-30T09:25:20.007Z,65.55
2019-03-30T09:27:25.604Z,63.28
2019-03-30T09:29:31.203Z,54.18
2019-03-30T09:31:36.740Z,55.55
2019-03-30T09:33:42.287Z,59.38
2019-03-30T09:35:48.561Z,57.95
2019-03-30T09:37:54.085Z,49.30
2019-03-30T09:39:59.676Z,51.70
2019-03-30T09:42:05.218Z,49.30
2019-03-30T09:44:10.809Z,47.35
2019-03-30T09:46:17.402Z,46.00
2019-03-30T09:48:24.030Z,49.50
2019-03-30T09:50:29.547Z,54.55
2019-03-30T09:52:36.151Z,57.75
2019-03-30T09:54:41.744Z,63.58
2019-03-30T09:56:47.268Z,60.15
2019-03-30T09:58:52.860Z,63.90
2019-03-30T10:00:58.873Z,64.50
2019-03-30T10:03:06.245Z,61.15
2019-03-30T10:05:12.185Z,65.03
2019-03-30T10:07:17.792Z,61.35
2019-03-30T10:09:23.313Z,61.45
2019-03-30T10:11:28.928Z,54.25
2019-03-30T10:13:34.471Z,51.53
2019-03-30T10:15:39.989Z,50.10
2019-03-30T10:17:45.522Z,50.08
2019-03-30T10:20:03.673Z,47.25
2019-03-30T10:21:58.187Z,42.00
2019-03-30T10:24:04.951Z,50.23
2019-03-30T10:26:10.477Z,53.85
2019-03-30T10:28:16.016Z,49.15
2019-03-30T10:30:21.619Z,49.77
2019-03-30T10:32:27.141Z,39.85
2019-03-30T10:34:32.664Z,46.25
2019-03-30T10:36:38.220Z,40.23
2019-03-30T10:38:43.753Z,35.20
2019-03-30T10:40:49.271Z,37.95
2019-03-30T10:42:54.893Z,38.08
2019-03-30T10:45:00.416Z,38.02
2019-03-30T10:47:07.212Z,39.65
2019-03-30T10:49:12.752Z,36.17
2019-03-30T10:51:18.268Z,34.53
2019-03-30T10:53:23.800Z,35.88
2019-03-30T10:55:29.399Z,31.97
2019-03-30T10:57:34.943Z,35.15
2019-03-30T10:59:40.472Z,39.23
2019-03-30T11:01:46.038Z,37.17
2019-03-30T11:03:51.569Z,34.10
2019-03-30T11:05:57.092Z,34.92
2019-03-30T11:08:02.698Z,34.20
2019-03-30T11:10:08.659Z,32.70
2019-03-30T11:12:14.189Z,36.42
2019-03-30T11:14:19.720Z,34.58
2019-03-30T11:16:25.237Z,34.58
2019-03-30T11:18:30.832Z,39.40
2019-03-30T11:20:36.400Z,40.78
2019-03-30T11:22:41.940Z,43.30
2019-03-30T11:24:47.477Z,39.45
2019-03-30T11:26:53.020Z,43.98
2019-03-30T11:28:58.590Z,38.65
2019-03-30T11:31:05.580Z,41.98
2019-03-30T11:33:12.382Z,44.08
2019-03-30T11:35:17.988Z,45.10
2019-03-30T11:37:23.528Z,43.50
2019-03-30T11:39:29.068Z,46.80
2019-03-30T11:41:34.600Z,41.73
2019-03-30T11:43:40.200Z,48.60
2019-03-30T11:45:45.732Z,48.33
2019-03-30T11:47:51.343Z,47.17
2019-03-30T11:49:56.946Z,52.80
2019-03-30T11:52:02.541Z,52.48
2019-03-30T11:54:08.100Z,48.42
2019-03-30T11:56:13.681Z,47.67
2019-03-30T11:58:19.214Z,48.73
2019-03-30T12:00:24.771Z,47.48
2019-03-30T12:02:30.312Z,44.45
2019-03-30T12:04:35.915Z,41.20
2019-03-30T12:06:41.467Z,40.80
2019-03-30T12:08:46.985Z,49.53
2019-03-30T12:10:52.511Z,43.23
2019-03-30T12:12:59.124Z,39.98
2019-03-30T12:15:08.785Z,44.53
2019-03-30T12:17:14.329Z,43.83
2019-03-30T12:19:19.880Z,42.85
2019-03-30T12:21:25.414Z,46.73
2019-03-30T12:23:30.955Z,49.65
2019-03-30T12:25:36.506Z,54.98
2019-03-30T12:27:42.030Z,47.38
2019-03-30T12:29:49.626Z,42.25
2019-03-30T12:31:55.154Z,43.08
2019-03-30T12:34:00.677Z,50.33
2019-03-30T12:36:06.270Z,43.63
2019-03-30T12:38:11.860Z,48.50
2019-03-30T12:40:17.540Z,47.33
2019-03-30T12:42:23.078Z,42.93
2019-03-30T12:44:28.704Z,46.70
2019-03-30T12:46:34.400Z,49.55
2019-03-30T12:48:40.994Z,51.13
2019-03-30T12:50:46.668Z,48.83
2019-03-30T12:52:52.270Z,48.38
2019-03-30T12:54:57.782Z,40.50
2019-03-30T12:57:03.320Z,44.10
2019-03-30T12:59:08.919Z,48.38
2019-03-30T13:01:15.668Z,42.03
2019-03-30T13:03:22.401Z,42.00
2019-03-30T13:05:27.936Z,39.13
2019-03-30T13:07:33.474Z,39.67
2019-03-30T13:09:39.090Z,40.88
2019-03-30T13:11:44.602Z,45.43
2019-03-30T13:13:50.142Z,40.88
2019-03-30T13:15:55.678Z,38.98
2019-03-30T13:18:01.196Z,40.12
2019-03-30T13:20:09.043Z,37.10
2019-03-30T13:22:14.571Z,38.75
2019-03-30T13:24:20.100Z,39.20
2019-03-30T13:26:25.640Z,36.60
2019-03-30T13:28:31.204Z,38.90
2019-03-30T13:30:36.882Z,39.92
2019-03-30T13:32:42.437Z,36.85
2019-03-30T13:34:48.024Z,42.38
2019-03-30T13:36:53.539Z,40.05
2019-03-30T13:38:59.071Z,36.38
2019-03-30T13:41:04.692Z,34.45
2019-03-30T13:43:10.278Z,36.68
2019-03-30T13:45:15.880Z,35.25
2019-03-30T13:47:21.438Z,38.53
2019-03-30T13:49:29.501Z,34.40
2019-03-30T13:51:34.097Z,31.07
2019-03-30T13:53:39.705Z,27.20
2019-03-30T13:55:45.229Z,28.20
2019-03-30T13:57:50.763Z,28.95
2019-03-30T13:59:56.305Z,25.48
2019-03-30T14:02:02.981Z,27.45
2019-03-30T14:04:08.504Z,28.32
2019-03-30T14:06:14.084Z,28.55
2019-03-30T14:08:19.561Z,24.32
2019-03-30T14:10:25.159Z,27.10
2019-03-30T14:12:30.712Z,24.92
2019-03-30T14:14:36.245Z,19.70
2019-03-30T14:16:41.752Z,17.32
2019-03-30T14:18:47.293Z,18.07
2019-03-30T14:20:52.881Z,14.05
2019-03-30T14:22:58.394Z,11.50
2019-03-30T14:25:05.468Z,9.08
2019-03-30T14:27:10.981Z,10.60
2019-03-30T14:29:19.864Z,10.72
2019-03-30T14:31:25.456Z,12.55
2019-03-30T14:33:30.972Z,13.72
2019-03-30T14:35:36.504Z,11.45
2019-03-30T14:37:42.021Z,11.73
2019-03-30T14:39:47.535Z,11.70
2019-03-30T14:41:53.055Z,12.45
2019-03-30T14:43:58.585Z,11.75
2019-03-30T14:46:04.185Z,11.48
2019-03-30T14:48:09.700Z,15.85
2019-03-30T14:50:15.515Z,17.17
2019-03-30T14:52:21.054Z,21.95
2019-03-30T14:54:26.578Z,19.27
2019-03-30T14:56:44.792Z,14.73
2019-03-30T14:58:39.346Z,53.17
2019-03-30T15:00:44.797Z,20.48
2019-03-30T15:02:50.341Z,20.88
2019-03-30T15:04:55.871Z,132.87
2019-03-30T15:07:01.427Z,103.62
2019-03-30T15:09:07.504Z,110.75
2019-03-30T15:11:13.136Z,133.10
2019-03-30T15:13:31.004Z,17.48
2019-03-30T15:15:36.554Z,134.57
2019-03-30T15:17:42.158Z,26.37
2019-03-30T15:19:47.760Z,15.32
2019-03-30T15:21:53.293Z,16.70
2019-03-30T15:23:58.901Z,15.55
2019-03-30T15:26:04.436Z,19.37
2019-03-30T15:28:10.059Z,12.40
2019-03-30T15:30:17.035Z,11.22
2019-03-30T15:32:22.546Z,14.93
2019-03-30T15:34:28.100Z,10.65
2019-03-30T15:36:33.624Z,8.98
2019-03-30T15:38:39.134Z,9.68
2019-03-30T15:40:44.663Z,10.40
2019-03-30T15:42:50.197Z,11.05
2019-03-30T15:44:55.727Z,13.85
2019-03-30T15:47:01.259Z,11.55
2019-03-30T15:49:09.559Z,8.80
2019-03-30T15:51:14.005Z,10.40
2019-03-30T15:53:19.570Z,9.35
2019-03-30T15:55:25.087Z,12.28
2019-03-30T15:57:30.687Z,12.78
2019-03-30T15:59:36.205Z,9.80
2019-03-30T16:01:41.807Z,15.00
2019-03-30T16:03:47.332Z,15.63
2019-03-30T16:05:52.863Z,23.50
2019-03-30T16:07:58.452Z,27.15
2019-03-30T16:10:04.736Z,16.23
2019-03-30T16:12:10.304Z,39.50
2019-03-30T16:14:15.827Z,20.52
2019-03-30T16:16:21.364Z,14.98
2019-03-30T16:18:26.894Z,15.28
2019-03-30T16:20:32.430Z,15.78
2019-03-30T16:22:37.961Z,17.10
2019-03-30T16:24:43.580Z,16.37
2019-03-30T16:26:49.098Z,17.73
2019-03-30T16:28:54.632Z,22.93
2019-03-30T16:31:00.256Z,25.77
2019-03-30T16:33:05.862Z,24.20
2019-03-30T16:35:11.627Z,25.30
2019-03-30T16:37:17.170Z,96.72
2019-03-30T16:39:22.700Z,69.07
2019-03-30T16:41:28.306Z,52.43
2019-03-30T16:43:33.870Z,32.95
2019-03-30T16:45:39.453Z,33.53
2019-03-30T16:47:45.108Z,37.53
2019-03-30T16:49:50.652Z,42.80
2019-03-30T16:51:56.186Z,41.33
2019-03-30T16:54:01.713Z,38.65
2019-03-30T16:56:07.245Z,56.88
2019-03-30T16:58:12.790Z,62.67
2019-03-30T17:00:18.924Z,71.92
2019-03-30T17:02:24.545Z,79.82
2019-03-30T17:04:30.065Z,60.08
2019-03-30T17:06:35.589Z,62.90
2019-03-30T17:08:41.145Z,60.58
2019-03-30T17:10:46.664Z,45.85
2019-03-30T17:12:52.201Z,61.83
2019-03-30T17:14:57.728Z,85.90
2019-03-30T17:17:03.248Z,71.92
2019-03-30T17:19:08.837Z,45.00
2019-03-30T17:21:14.387Z,49.58
2019-03-30T17:23:19.921Z,53.48
2019-03-30T17:25:25.524Z,72.05
2019-03-30T17:27:31.154Z,85.38
2019-03-30T17:29:36.681Z,98.35
2019-03-30T17:31:42.272Z,99.30
2019-03-30T17:33:47.836Z,100.12
2019-03-30T17:35:53.370Z,99.90
2019-03-30T17:37:58.976Z,87.65
2019-03-30T17:40:10.346Z,101.72
2019-03-30T17:42:15.879Z,119.70
2019-03-30T17:44:21.404Z,107.00
2019-03-30T17:46:26.979Z,114.72
2019-03-30T17:48:32.504Z,149.75
2019-03-30T17:50:38.051Z,223.43
2019-03-30T17:52:44.607Z,247.50
2019-03-30T17:54:50.237Z,235.60
2019-03-30T17:56:55.790Z,200.07
2019-03-30T17:59:01.409Z,190.95
2019-03-30T18:01:07.064Z,169.47
2019-03-30T18:03:12.596Z,169.80
2019-03-30T18:05:18.156Z,183.05
2019-03-30T18:07:23.682Z,210.95
2019-03-30T18:09:29.226Z,219.77
2019-03-30T18:11:34.783Z,259.90
2019-03-30T18:13:40.320Z,295.67
2019-03-30T18:15:45.869Z,315.37
2019-03-30T18:17:51.423Z,262.32
2019-03-30T18:19:56.999Z,287.80
2019-03-30T18:22:02.578Z,354.27
2019-03-30T18:24:08.137Z,337.00
2019-03-30T18:26:13.678Z,313.40
2019-03-30T18:28:27.061Z,269.37
2019-03-30T18:30:37.900Z,259.87
2019-03-30T18:32:44.075Z,277.87
2019-03-30T18:34:50.794Z,295.48
2019-03-30T18:36:57.087Z,348.27
2019-03-30T18:39:09.240Z,317.20
2019-03-30T18:41:11.580Z,264.10
2019-03-30T18:43:17.202Z,276.25
2019-03-30T18:45:25.582Z,263.48
2019-03-30T18:47:31.196Z,230.85
2019-03-30T18:49:36.744Z,207.05
2019-03-30T18:51:44.496Z,267.85
2019-03-30T18:53:50.188Z,231.15
2019-03-30T18:55:55.760Z,298.80
2019-03-30T18:58:01.307Z,214.35
2019-03-30T19:00:07.874Z,251.15
2019-03-30T19:02:15.204Z,216.70
2019-03-30T19:04:20.786Z,222.73
2019-03-30T19:06:26.410Z,190.62
2019-03-30T19:08:34.568Z,176.32
2019-03-30T19:10:39.686Z,170.35
2019-03-30T19:12:45.312Z,125.33
2019-03-30T19:14:50.857Z,144.02
2019-03-30T19:16:57.525Z,150.93
2019-03-30T19:19:03.209Z,157.10
2019-03-30T19:21:08.779Z,168.35
2019-03-30T19:23:15.386Z,170.22
2019-03-30T19:25:21.059Z,232.07
2019-03-30T19:27:26.636Z,287.65
2019-03-30T19:29:32.209Z,324.48
2019-03-30T19:31:37.747Z,530.25
2019-03-30T19:33:43.280Z,384.02
2019-03-30T19:35:48.835Z,377.15
2019-03-30T19:37:54.379Z,341.93
2019-03-30T19:39:59.926Z,294.25
2019-03-30T19:42:05.532Z,249.05
2019-03-30T19:44:11.079Z,206.97
2019-03-30T19:46:17.689Z,177.43
2019-03-30T19:48:23.278Z,169.20
2019-03-30T19:50:28.760Z,169.53
2019-03-30T19:52:40.300Z,164.10
2019-03-30T19:54:41.471Z,173.45
2019-03-30T19:56:47.009Z,193.78
2019-03-30T19:58:52.562Z,189.37
2019-03-30T20:00:58.163Z,173.43
2019-03-30T20:03:03.777Z,167.30
2019-03-30T20:05:09.860Z,157.60
2019-03-30T20:07:15.530Z,159.20
2019-03-30T20:09:21.350Z,157.97
2019-03-30T20:11:26.945Z,168.97
2019-03-30T20:13:32.568Z,173.25
2019-03-30T20:15:38.177Z,167.35
2019-03-30T20:17:43.712Z,177.55
2019-03-30T20:19:49.246Z,177.40
2019-03-30T20:21:57.273Z,181.95
2019-03-30T20:24:02.022Z,180.72
2019-03-30T20:26:07.640Z,190.10
2019-03-30T20:28:13.184Z,185.30
2019-03-30T20:30:19.159Z,172.22
2019-03-30T20:32:24.820Z,164.10
2019-03-30T20:34:30.380Z,172.75
2019-03-30T20:36:35.921Z,166.35
2019-03-30T20:38:41.470Z,152.78
2019-03-30T20:40:47.014Z,146.72
2019-03-30T20:42:52.610Z,140.97
2019-03-30T20:44:58.155Z,143.78
2019-03-30T20:47:03.697Z,144.80
2019-03-30T20:49:10.376Z,147.10
2019-03-30T20:51:15.906Z,149.50
2019-03-30T20:53:21.493Z,143.22
2019-03-30T20:55:27.040Z,160.65
2019-03-30T20:57:32.564Z,153.65
2019-03-30T20:59:40.115Z,150.05
2019-03-30T21:01:45.394Z,161.07
2019-03-30T21:03:50.932Z,163.72
2019-03-30T21:05:56.539Z,168.20
2019-03-30T21:08:02.029Z,183.12
2019-03-30T21:10:09.695Z,174.90
2019-03-30T21:12:15.391Z,173.32
2019-03-30T21:14:20.923Z,176.82
2019-03-30T21:16:26.532Z,172.35
2019-03-30T21:18:32.099Z,163.70
2019-03-30T21:20:37.673Z,155.45
2019-03-30T21:22:43.208Z,148.60
2019-03-30T21:24:48.827Z,140.05
2019-03-30T21:26:54.369Z,135.75
2019-03-30T21:28:59.970Z,135.93
2019-03-30T21:31:05.587Z,136.95
2019-03-30T21:33:11.112Z,140.30
2019-03-30T21:35:16.800Z,134.22
2019-03-30T21:37:22.379Z,122.72
2019-03-30T21:39:28.980Z,140.18
2019-03-30T21:41:34.516Z,132.20
2019-03-30T21:43:40.050Z,143.68
2019-03-30T21:45:45.651Z,150.62
2019-03-30T21:47:51.260Z,172.05
2019-03-30T21:49:56.786Z,236.90
2019-03-30T21:52:02.326Z,205.43
2019-03-30T21:54:07.924Z,231.25
2019-03-30T21:56:13.505Z,278.92
2019-03-30T21:58:19.049Z,203.12
2019-03-30T22:00:36.195Z,191.43
2019-03-30T22:02:41.813Z,191.80
2019-03-30T22:04:47.355Z,206.63
2019-03-30T22:06:52.890Z,174.15
2019-03-30T22:08:59.004Z,154.05
2019-03-30T22:11:04.627Z,144.13
2019-03-30T22:13:10.233Z,130.47
2019-03-30T22:15:18.848Z,124.75
2019-03-30T22:17:24.432Z,125.67
2019-03-30T22:19:30.037Z,115.52
2019-03-30T22:21:35.583Z,111.68
2019-03-30T22:23:41.128Z,101.40
2019-03-30T22:25:46.663Z,105.17
2019-03-30T22:27:52.221Z,105.37
2019-03-30T22:29:57.756Z,112.17
2019-03-30T22:32:03.285Z,117.33
2019-03-30T22:34:08.822Z,131.75
2019-03-30T22:36:14.376Z,126.65
2019-03-30T22:38:19.912Z,132.40
2019-03-30T22:40:25.436Z,128.62
2019-03-30T22:42:31.001Z,125.15
2019-03-30T22:44:36.554Z,126.92
2019-03-30T22:46:42.102Z,136.90
2019-03-30T22:48:47.628Z,142.05
2019-03-30T22:50:53.164Z,140.60
2019-03-30T22:52:58.718Z,136.12
2019-03-30T22:55:06.819Z,128.80
2019-03-30T22:57:12.297Z,125.65
2019-03-30T22:59:17.827Z,130.55
2019-03-30T23:01:24.408Z,122.67
2019-03-30T23:03:29.992Z,119.87
2019-03-30T23:05:35.524Z,122.72
2019-03-30T23:07:42.144Z,129.45
2019-03-30T23:09:47.694Z,121.30
2019-03-30T23:11:53.247Z,119.05
2019-03-30T23:13:58.778Z,125.60
2019-03-30T23:16:04.459Z,110.78
2019-03-30T23:18:10.016Z,113.80
2019-03-30T23:20:15.624Z,105.25
2019-03-30T23:22:21.156Z,106.63
2019-03-30T23:24:26.768Z,95.35
2019-03-30T23:26:32.308Z,101.87
2019-03-30T23:28:40.562Z,96.85
2019-03-30T23:30:54.287Z,90.92
2019-03-30T23:32:53.352Z,94.05
2019-03-30T23:34:58.936Z,85.47
2019-03-30T23:37:04.616Z,86.87
2019-03-30T23:39:11.277Z,82.53
2019-03-30T23:41:16.909Z,101.60
2019-03-30T23:43:22.463Z,112.62
2019-03-30T23:45:27.977Z,101.60
2019-03-30T23:47:33.499Z,111.70
2019-03-30T23:49:39.036Z,105.03
2019-03-30T23:51:44.556Z,106.35
2019-03-30T23:53:50.084Z,111.03
2019-03-30T23:55:55.628Z,116.20
2019-03-30T23:58:01.156Z,114.75
